Time;durP1;ratioP1;P1;durP2;ratioP2;P2;SDS_P1;SDS_P2;PMS_P1;PMS_P2;Temp;Humidity;BMP_temperature;BMP_pressure;BME280_temperature;BME280_humidity;BME280_pressure;Samples;Min_cycle;Max_cycle;Signal;HPM_P1;HPM_P2
2020/12/11 10:02:13;;;;;;;6.55;4.60;;;9.40;99.90;;;;;;5094370;27;20358;-79
2020/12/11 10:04:38;;;;;;;9.73;3.58;;;9.50;99.90;;;;;;5083287;28;20020;-77
2020/12/11 10:07:04;;;;;;;5.80;3.40;;;9.90;99.90;;;;;;5100014;28;20074;-78
2020/12/11 10:09:30;;;;;;;8.60;4.28;;;10.30;99.90;;;;;;5080867;28;20032;-73
2020/12/11 10:11:58;;;;;;;4.85;2.58;;;10.60;99.90;;;;;;5077523;28;20050;-74
2020/12/11 10:14:33;;;;;;;3.42;2.28;;;10.90;99.90;;;;;;5084999;28;20574;-74
2020/12/11 10:36:33;;;;;;;4.55;3.08;;;9.80;99.90;;;;;;5124181;27;20122;-74
2020/12/11 11:29:30;;;;;;;4.80;2.40;;;11.40;99.90;;;;;;5098752;28;20013;-80
2020/12/11 11:31:56;;;;;;;15.02;2.63;;;11.40;99.90;;;;;;5100592;28;20061;-81
2020/12/11 11:34:22;;;;;;;6.93;1.90;;;11.60;99.90;;;;;;5085370;28;20111;-80
2020/12/11 11:36:52;;;;;;;11.65;2.47;;;11.60;99.90;;;;;;5099084;28;20032;-79
2020/12/11 11:39:18;;;;;;;12.50;3.05;;;11.70;99.90;;;;;;5100693;28;20470;-81
2020/12/11 11:41:47;;;;;;;10.55;2.70;;;11.80;99.90;;;;;;5078155;28;20027;-80
2020/12/11 11:46:50;;;;;;;11.65;2.65;;;12.10;99.90;;;;;;5096172;28;20032;-81
2020/12/11 11:52:14;;;;;;;8.13;2.60;;;12.20;99.90;;;;;;4999003;28;20394;-80
2020/12/11 11:54:40;;;;;;;12.73;2.90;;;12.30;99.90;;;;;;4999928;28;21517;-81
2020/12/11 11:57:06;;;;;;;9.98;3.53;;;12.40;99.90;;;;;;5001203;28;20168;-79
2020/12/11 11:59:34;;;;;;;14.20;3.08;;;12.40;99.90;;;;;;5005966;28;20185;-75
2020/12/11 12:02:00;;;;;;;11.13;2.83;;;12.50;99.90;;;;;;5001411;28;20034;-75
2020/12/11 12:04:26;;;;;;;10.43;3.38;;;12.60;99.90;;;;;;5000179;28;20202;-75
2020/12/11 12:06:51;;;;;;;14.88;3.05;;;12.50;99.90;;;;;;4999316;28;20026;-74
2020/12/11 12:09:18;;;;;;;8.00;2.45;;;12.60;99.90;;;;;;4995334;28;20059;-75
2020/12/11 12:11:44;;;;;;;10.30;2.83;;;12.70;99.90;;;;;;5004104;28;20062;-75
2020/12/11 12:14:10;;;;;;;11.65;3.13;;;12.80;99.90;;;;;;4999069;28;20050;-74
2020/12/11 12:16:37;;;;;;;14.90;3.08;;;12.80;99.90;;;;;;5001091;28;20034;-77
2020/12/11 12:19:03;;;;;;;14.55;2.83;;;12.60;99.90;;;;;;5000069;28;20027;-74
2020/12/11 12:29:30;;;;;;;11.82;3.53;;;12.70;99.90;;;;;;5025320;28;20923;-74
2020/12/11 12:31:59;;;;;;;9.07;2.58;;;12.70;99.90;;;;;;5051405;28;20048;-74
2020/12/11 12:37:40;;;;;;;9.70;2.83;;;12.90;99.90;;;;;;5053242;28;20029;-75
2020/12/11 12:44:50;;;;;;;13.70;2.72;;;13.10;99.90;;;;;;5039896;28;20105;-75
2020/12/11 12:47:16;;;;;;;14.88;2.85;;;13.10;99.90;;;;;;5045096;28;20040;-75
2020/12/11 12:49:41;;;;;;;17.25;3.15;;;13.10;99.90;;;;;;5048288;28;20033;-75
2020/12/11 12:52:07;;;;;;;9.98;2.60;;;13.20;99.90;;;;;;5041227;28;20491;-74
2020/12/11 12:54:32;;;;;;;10.82;3.03;;;13.20;99.90;;;;;;5042508;28;20107;-73
2020/12/11 12:57:01;;;;;;;7.88;2.65;;;13.20;99.90;;;;;;5042639;28;20119;-74
2020/12/11 12:59:47;;;;;;;13.63;3.28;;;13.20;99.90;;;;;;5045867;28;20028;-76
2020/12/11 13:02:32;;;;;;;6.93;2.40;;;13.30;99.90;;;;;;5046316;28;20021;-75
2020/12/11 13:05:15;;;;;;;14.45;3.33;;;13.30;99.90;;;;;;5041932;28;20041;-76
2020/12/11 13:07:41;;;;;;;9.52;2.88;;;13.20;99.90;;;;;;5061069;28;20029;-76
2020/12/11 13:10:07;;;;;;;11.80;3.20;;;13.20;99.90;;;;;;5047240;28;20039;-75
2020/12/11 13:12:33;;;;;;;13.77;2.72;;;13.00;99.90;;;;;;5042859;28;20045;-75
2020/12/11 13:15:00;;;;;;;6.32;2.90;;;13.00;99.90;;;;;;5044263;28;20026;-78
2020/12/11 13:17:28;;;;;;;16.30;3.10;;;13.00;99.90;;;;;;5040096;28;20040;-79
2020/12/11 13:19:54;;;;;;;15.32;3.20;;;13.00;99.90;;;;;;5063595;28;20037;-77
2020/12/11 13:27:31;;;;;;;15.07;3.40;;;13.00;99.90;;;;;;5044353;28;20032;-78
2020/12/11 13:29:57;;;;;;;17.65;4.35;;;12.90;99.90;;;;;;5049068;28;20033;-78
2020/12/11 13:32:24;;;;;;;14.48;3.72;;;13.00;99.90;;;;;;5046932;28;20037;-78
2020/12/11 13:34:50;;;;;;;15.13;3.88;;;13.00;99.90;;;;;;5047190;28;20033;-77
2020/12/11 13:37:16;;;;;;;27.15;4.57;;;13.00;99.90;;;;;;5056134;28;20026;-77
2020/12/11 13:39:42;;;;;;;14.65;4.00;;;13.00;99.90;;;;;;5053350;28;20032;-79
2020/12/11 13:42:08;;;;;;;17.38;3.25;;;13.00;99.90;;;;;;5049588;28;20040;-76
2020/12/11 13:44:33;;;;;;;12.43;3.42;;;13.00;99.90;;;;;;5063686;28;20032;-75
2020/12/11 13:46:59;;;;;;;15.23;3.80;;;13.00;99.90;;;;;;5043418;28;20130;-75
2020/12/11 13:49:25;;;;;;;12.77;4.07;;;13.00;99.90;;;;;;5036926;28;20412;-76
